»·PEaware :: SWA105 KSAN-KPHX

SWA105 :: KSAN-KPHX

FLIGHT INFORMATION

Flight Status: Arrived
Operator:
Southwest Airlines
More flights by this operator :: More flights under this callsign
Pilot: Maximilliano F. (23467)
Aircraft: BOEING 737-800
(B738)
More flights by this aircraft type
Origin: KSAN San Diego Intl-Lindbergh
United States
Destination: KPHX Phoenix Sky Harbor Intl
United States
More flights between these airports :: More routes between these airports
Route: +ZZOOO2 IPL J18 BZA HOGGZ HYDRR1
File this flight plan on PilotEdge
Remarks: RMK / SIMBRIEF
Altitude:
(Current/Filed)
35,000ft
Speed:
(Current/Filed)
451kts
Departed: 29-Oct-19 09:05 PM
Arrived: 29-Oct-19 09:55 PM
Distance/Time
Traveled:
264nm/0:49
Distance/Time
To Go:
Arrived

Flight Plot

Page will automatically refresh every two minutes.

Flight plan parsing failed; only flown route is shown


Map Options




Map Legend


Flown Route
Filed Route
Departure Airport
Arrival Airport
Navaid (VOR, NDB)
Fix

Horizontal Profiles

Position Reports

Time Latitude Longitude Heading Altitude Ground
Speed
29-Oct-19 20:29 32.731201 -117.195352 264 22ft 0kts
29-Oct-19 20:30 32.731201 -117.195352 264 22ft 0kts
29-Oct-19 20:31 32.731201 -117.195352 264 22ft 0kts
29-Oct-19 20:40 32.731201 -117.195352 264 22ft 0kts
29-Oct-19 20:41 32.731201 -117.195352 264 22ft 0kts
29-Oct-19 20:42 32.731201 -117.195352 264 22ft 0kts
29-Oct-19 20:42 32.731201 -117.195352 264 22ft 0kts
29-Oct-19 20:44 32.731201 -117.195352 264 22ft 0kts
29-Oct-19 20:45 32.731201 -117.195352 264 22ft 0kts
29-Oct-19 20:45 32.731201 -117.195352 264 22ft 0kts
29-Oct-19 20:46 32.731201 -117.195352 264 22ft 0kts
29-Oct-19 20:48 32.731201 -117.195352 264 22ft 0kts
29-Oct-19 20:48 32.731201 -117.195352 264 22ft 0kts
29-Oct-19 20:49 32.731201 -117.195351 264 22ft 0kts
29-Oct-19 20:51 32.731701 -117.195047 193 21ft 2kts
29-Oct-19 20:51 32.732052 -117.195151 87 21ft 2kts
29-Oct-19 20:52 32.732014 -117.195290 66 21ft 0kts
29-Oct-19 20:53 32.732014 -117.195290 66 21ft 0kts
29-Oct-19 20:54 32.732014 -117.195290 66 21ft 0kts
29-Oct-19 20:55 32.732369 -117.194756 31 21ft 7kts
29-Oct-19 20:56 32.733248 -117.192662 106 21ft 11kts
29-Oct-19 20:57 32.732106 -117.187966 106 20ft 14kts
29-Oct-19 20:58 32.730975 -117.183288 106 19ft 15kts
29-Oct-19 20:59 32.729904 -117.178852 105 21ft 14kts
29-Oct-19 21:00 32.729508 -117.176722 72 23ft 0kts
29-Oct-19 21:01 32.729508 -117.176722 72 23ft 0kts
29-Oct-19 21:02 32.729508 -117.176722 72 23ft 0kts
29-Oct-19 21:03 32.730373 -117.176530 286 25ft 9kts
29-Oct-19 21:04 32.738720 -117.213814 282 968ft 173kts
29-Oct-19 21:05 32.755356 -117.279861 286 3040ft 239kts
29-Oct-19 21:06 32.712282 -117.324297 159 5696ft 272kts
29-Oct-19 21:07 32.653408 -117.266066 130 8723ft 284kts
29-Oct-19 21:08 32.625062 -117.175632 96 10890ft 321kts
29-Oct-19 21:09 32.615531 -117.066771 96 13571ft 339kts
29-Oct-19 21:10 32.605275 -116.953009 96 16318ft 353kts
29-Oct-19 21:11 32.617642 -116.836183 76 18832ft 366kts
29-Oct-19 21:12 32.636111 -116.715493 83 21136ft 379kts
29-Oct-19 21:13 32.648249 -116.589786 83 23228ft 391kts
29-Oct-19 21:14 32.660909 -116.459395 83 25146ft 403kts
29-Oct-19 21:15 32.673818 -116.324950 83 26901ft 414kts
29-Oct-19 21:16 32.686845 -116.187724 83 28501ft 424kts
29-Oct-19 21:17 32.700061 -116.046859 83 29968ft 434kts
29-Oct-19 21:18 32.713152 -115.903133 83 31511ft 439kts
29-Oct-19 21:19 32.726308 -115.760199 83 33183ft 436kts
29-Oct-19 21:20 32.739279 -115.617381 83 34704ft 432kts
29-Oct-19 21:21 32.750257 -115.471483 88 34955ft 449kts
29-Oct-19 21:22 32.753328 -115.325512 88 34954ft 444kts
29-Oct-19 21:23 32.756748 -115.178837 88 34954ft 445kts
29-Oct-19 21:24 32.759992 -115.031717 88 34959ft 445kts
29-Oct-19 21:25 32.762853 -114.884890 88 34963ft 445kts
29-Oct-19 21:26 32.765738 -114.738378 88 34963ft 443kts
29-Oct-19 21:27 32.768434 -114.591892 88 34876ft 446kts
29-Oct-19 21:28 32.770416 -114.442561 88 31942ft 444kts
29-Oct-19 21:29 32.772215 -114.308246 89 29267ft 440kts
29-Oct-19 21:30 32.773906 -114.169672 89 26804ft 414kts
29-Oct-19 21:31 32.778747 -114.033308 82 24982ft 400kts
29-Oct-19 21:32 32.793706 -113.898686 82 24962ft 415kts
29-Oct-19 21:33 32.808747 -113.762987 80 24961ft 412kts
29-Oct-19 21:34 32.853139 -113.641512 52 24967ft 406kts
29-Oct-19 21:35 32.927080 -113.539736 48 24961ft 405kts
29-Oct-19 21:36 33.000763 -113.440421 48 23889ft 399kts
29-Oct-19 21:37 33.073351 -113.342228 48 21980ft 381kts
29-Oct-19 21:38 33.141789 -113.249636 48 19992ft 356kts
29-Oct-19 21:39 33.207956 -113.159971 48 17791ft 353kts
29-Oct-19 21:40 33.262750 -113.071097 67 16090ft 309kts
29-Oct-19 21:41 33.277135 -112.963406 87 14250ft 336kts
29-Oct-19 21:42 33.279813 -112.853684 86 12498ft 323kts
29-Oct-19 21:43 33.304998 -112.755999 65 11152ft 305kts
29-Oct-19 21:44 33.337987 -112.668461 65 10233ft 278kts
29-Oct-19 21:45 33.369942 -112.584927 65 8899ft 272kts
29-Oct-19 21:46 33.399845 -112.506450 65 8115ft 238kts
29-Oct-19 21:47 33.424691 -112.434647 74 7173ft 230kts
29-Oct-19 21:48 33.428700 -112.357946 89 6068ft 230kts
29-Oct-19 21:49 33.428751 -112.280596 90 5038ft 229kts
29-Oct-19 21:50 33.428793 -112.203835 90 4061ft 227kts
29-Oct-19 21:51 33.428857 -112.132347 90 2893ft 200kts
29-Oct-19 21:52 33.428874 -112.072076 90 1903ft 160kts
29-Oct-19 21:53 33.428958 -112.019001 90 1178ft 140kts
29-Oct-19 21:54 33.428808 -112.002640 90 1139ft 9kts

Navigation Log

Ident Type
Flight plan parsing failed, navigation log unavailable